Time;durP1;ratioP1;P1;durP2;ratioP2;P2;SDS_P1;SDS_P2;PMS_P1;PMS_P2;Temp;Humidity;BMP_temperature;BMP_pressure;BME280_temperature;BME280_humidity;BME280_pressure;Samples;Min_cycle;Max_cycle;Signal;HPM_P1;HPM_P2
2023/05/24 00:00:39;;;;;;;6.97;3.65;;;16.00;58.80;;;;;;5019381;28;20029;-69
2023/05/24 00:03:06;;;;;;;5.30;3.88;;;15.90;58.80;;;;;;5019870;28;20034;-70
2023/05/24 00:05:32;;;;;;;5.30;3.53;;;15.80;58.80;;;;;;5020838;28;20444;-69
2023/05/24 00:07:58;;;;;;;4.72;3.65;;;15.80;59.00;;;;;;5018880;28;20033;-69
2023/05/24 00:10:24;;;;;;;7.53;3.78;;;15.70;59.00;;;;;;5021697;28;20028;-68
2023/05/24 00:12:50;;;;;;;6.85;4.10;;;15.70;59.30;;;;;;5001489;28;20034;-69
2023/05/24 00:15:15;;;;;;;5.45;3.53;;;15.60;59.30;;;;;;5001013;28;20022;-70
2023/05/24 00:17:41;;;;;;;4.85;3.53;;;15.60;59.40;;;;;;5021904;28;20411;-69
2023/05/24 00:20:11;;;;;;;4.47;3.33;;;15.50;59.30;;;;;;5015257;28;20037;-68
2023/05/24 00:22:39;;;;;;;5.10;3.35;;;15.50;59.40;;;;;;5017910;28;20030;-70
2023/05/24 00:25:05;;;;;;;8.07;3.50;;;15.50;59.40;;;;;;5016510;28;20050;-69
2023/05/24 00:27:31;;;;;;;6.20;3.33;;;15.40;59.20;;;;;;5019116;28;20030;-69
2023/05/24 00:29:58;;;;;;;7.38;3.50;;;15.30;59.30;;;;;;5018454;28;20566;-68
2023/05/24 00:32:24;;;;;;;4.68;3.38;;;15.30;59.40;;;;;;5019548;28;20048;-69
2023/05/24 00:34:49;;;;;;;4.10;3.03;;;15.20;59.40;;;;;;5005538;28;20042;-68
2023/05/24 00:37:16;;;;;;;4.97;3.28;;;15.20;59.50;;;;;;5024250;28;20041;-67
2023/05/24 00:39:42;;;;;;;4.00;3.25;;;15.10;59.30;;;;;;4912897;28;20676;-68
2023/05/24 00:42:08;;;;;;;4.90;3.17;;;15.10;59.50;;;;;;5020662;28;20026;-69
2023/05/24 00:44:34;;;;;;;4.45;3.10;;;15.10;59.50;;;;;;5023408;28;20049;-69
2023/05/24 00:46:59;;;;;;;3.28;2.80;;;15.10;59.60;;;;;;5007294;28;20519;-68
2023/05/24 00:49:25;;;;;;;5.47;3.38;;;15.00;59.60;;;;;;5020690;28;20086;-69
2023/05/24 00:51:53;;;;;;;5.43;3.63;;;15.00;59.70;;;;;;5017507;28;20388;-69
2023/05/24 00:54:19;;;;;;;6.95;3.65;;;15.00;59.80;;;;;;5017734;28;20038;-69
2023/05/24 00:56:46;;;;;;;4.20;3.20;;;14.90;59.80;;;;;;5019899;28;20029;-69
2023/05/24 00:59:13;;;;;;;4.53;3.20;;;14.90;59.90;;;;;;5002004;28;20547;-69
2023/05/24 01:01:40;;;;;;;5.05;3.35;;;14.90;59.90;;;;;;4996146;28;20063;-69
2023/05/24 01:04:06;;;;;;;5.90;3.40;;;14.90;59.90;;;;;;5020021;28;20492;-69
2023/05/24 01:06:46;;;;;;;3.47;3.17;;;14.80;59.80;;;;;;5022104;28;20053;-69
2023/05/24 01:09:20;;;;;;;3.90;2.80;;;14.70;59.90;;;;;;5006772;28;20029;-69
2023/05/24 01:12:06;;;;;;;7.63;3.13;;;14.70;60.10;;;;;;4996170;28;20025;-68
2023/05/24 01:14:48;;;;;;;4.70;3.15;;;14.60;60.40;;;;;;5016968;28;20038;-69
2023/05/24 01:17:31;;;;;;;5.43;3.22;;;14.50;60.40;;;;;;5014137;28;20060;-70
2023/05/24 01:20:00;;;;;;;3.90;2.80;;;14.40;60.70;;;;;;5015073;28;20400;-68
2023/05/24 01:22:37;;;;;;;6.80;3.15;;;14.40;60.20;;;;;;5022719;28;20105;-68
2023/05/24 01:25:13;;;;;;;5.15;2.95;;;14.40;60.90;;;;;;5024704;28;20042;-68
2023/05/24 01:27:39;;;;;;;4.68;2.70;;;14.30;61.40;;;;;;5020458;28;20019;-69
2023/05/24 01:30:06;;;;;;;5.40;3.10;;;14.30;60.60;;;;;;5001745;28;20026;-69
2023/05/24 01:32:32;;;;;;;5.50;3.20;;;14.30;60.80;;;;;;4999370;28;20038;-70
2023/05/24 01:34:58;;;;;;;5.70;3.38;;;14.20;60.70;;;;;;4992842;28;20046;-69
2023/05/24 01:37:23;;;;;;;5.30;3.22;;;14.20;60.80;;;;;;5018143;28;20034;-69
2023/05/24 01:39:49;;;;;;;6.18;3.30;;;14.20;61.00;;;;;;5018211;28;20034;-69
2023/05/24 01:42:26;;;;;;;4.38;3.17;;;14.10;61.00;;;;;;5018171;28;20018;-69
2023/05/24 01:45:13;;;;;;;7.50;3.45;;;14.10;61.20;;;;;;5014871;28;20042;-69
2023/05/24 01:48:03;;;;;;;8.85;3.63;;;14.00;61.50;;;;;;5018027;28;20029;-70
2023/05/24 01:50:36;;;;;;;3.85;2.88;;;14.00;61.60;;;;;;5016781;28;20064;-69
2023/05/24 01:53:05;;;;;;;4.82;3.28;;;14.00;61.60;;;;;;5017631;28;20026;-69
2023/05/24 01:55:33;;;;;;;3.45;2.60;;;13.90;61.40;;;;;;5018528;28;20034;-68
2023/05/24 01:58:04;;;;;;;4.55;3.05;;;13.90;61.50;;;;;;5016470;28;20026;-69
2023/05/24 02:00:31;;;;;;;8.48;3.17;;;13.80;61.50;;;;;;5018072;28;20367;-69
2023/05/24 02:02:57;;;;;;;4.65;2.80;;;13.80;61.50;;;;;;5020613;28;20026;-69
2023/05/24 02:05:23;;;;;;;4.93;3.25;;;13.80;61.60;;;;;;5017733;28;20527;-69
2023/05/24 02:07:49;;;;;;;7.95;3.30;;;13.80;61.80;;;;;;5017312;28;20031;-68
2023/05/24 02:10:15;;;;;;;4.30;3.15;;;13.80;61.90;;;;;;5017929;28;20036;-68
2023/05/24 02:12:41;;;;;;;3.75;2.90;;;13.70;62.00;;;;;;5013266;28;20058;-69
2023/05/24 02:15:08;;;;;;;5.10;3.20;;;13.70;62.10;;;;;;5016480;28;20095;-69
2023/05/24 02:17:34;;;;;;;4.90;3.30;;;13.70;62.10;;;;;;5017004;28;20060;-68
2023/05/24 02:20:00;;;;;;;4.00;3.10;;;13.70;62.20;;;;;;5017457;28;20046;-69
2023/05/24 02:22:26;;;;;;;6.05;3.35;;;13.70;62.30;;;;;;5017515;28;20056;-68
2023/05/24 02:24:52;;;;;;;4.47;3.10;;;13.70;62.30;;;;;;5011770;28;20088;-68
2023/05/24 02:27:18;;;;;;;6.72;3.35;;;13.60;62.20;;;;;;5016699;28;20439;-68
2023/05/24 02:29:43;;;;;;;4.70;3.15;;;13.70;62.40;;;;;;5018393;28;20114;-69
2023/05/24 02:32:10;;;;;;;5.50;3.17;;;13.60;62.50;;;;;;5021662;28;20018;-69
2023/05/24 02:34:35;;;;;;;8.55;3.28;;;13.60;62.50;;;;;;5020547;28;20029;-69
2023/05/24 02:37:01;;;;;;;7.30;3.25;;;13.60;62.10;;;;;;5021412;28;20026;-68
2023/05/24 02:39:27;;;;;;;6.38;3.30;;;13.60;62.10;;;;;;5020712;28;20038;-69
2023/05/24 02:41:52;;;;;;;7.85;3.25;;;13.60;62.10;;;;;;5015333;28;20026;-69
2023/05/24 02:44:18;;;;;;;4.93;3.35;;;13.50;61.90;;;;;;5021172;28;20030;-67
2023/05/24 02:46:44;;;;;;;5.18;3.08;;;13.50;62.00;;;;;;5018926;28;20089;-69
2023/05/24 02:49:11;;;;;;;7.55;3.40;;;13.50;62.10;;;;;;5022471;28;20076;-69
2023/05/24 02:51:36;;;;;;;4.22;2.92;;;13.50;62.10;;;;;;5020815;28;20029;-68
2023/05/24 02:54:02;;;;;;;7.82;2.95;;;13.50;62.00;;;;;;5021031;28;20132;-69
2023/05/24 02:56:28;;;;;;;7.53;3.08;;;13.40;62.00;;;;;;5017425;28;20018;-69
2023/05/24 02:58:54;;;;;;;10.10;3.00;;;13.40;62.00;;;;;;5004483;28;20042;-69
2023/05/24 03:01:21;;;;;;;6.53;3.17;;;13.40;62.30;;;;;;5021033;28;20022;-68
2023/05/24 03:03:47;;;;;;;5.15;3.22;;;13.30;62.40;;;;;;5022028;28;20018;-69
2023/05/24 03:06:12;;;;;;;4.22;2.97;;;13.30;62.50;;;;;;5021696;28;20030;-68
2023/05/24 03:08:40;;;;;;;7.40;3.55;;;13.30;62.60;;;;;;5019347;28;20052;-69
2023/05/24 03:11:06;;;;;;;7.00;3.47;;;13.20;62.40;;;;;;5020875;28;20022;-68
2023/05/24 03:13:32;;;;;;;6.78;3.47;;;13.20;62.20;;;;;;5030434;28;20048;-68
2023/05/24 03:15:57;;;;;;;8.50;3.17;;;13.20;62.20;;;;;;5018617;28;20030;-69
2023/05/24 03:18:23;;;;;;;10.07;3.88;;;13.20;62.20;;;;;;5018273;28;20117;-68
2023/05/24 03:20:49;;;;;;;9.52;3.85;;;13.20;62.20;;;;;;5020594;28;20029;-68
2023/05/24 03:23:15;;;;;;;9.68;3.50;;;13.10;62.20;;;;;;5020690;28;20026;-68
2023/05/24 03:25:41;;;;;;;7.97;3.65;;;13.10;62.20;;;;;;5019053;28;20061;-68
2023/05/24 03:28:07;;;;;;;8.20;3.42;;;13.10;62.20;;;;;;5004768;28;20052;-69
2023/05/24 03:30:32;;;;;;;8.60;3.42;;;13.00;62.10;;;;;;5003434;28;20125;-69
2023/05/24 03:32:58;;;;;;;6.53;2.83;;;13.00;62.20;;;;;;5020774;28;20022;-69
2023/05/24 03:35:24;;;;;;;4.80;3.00;;;12.90;62.30;;;;;;5020786;28;20026;-69
2023/05/24 03:37:50;;;;;;;7.18;2.97;;;12.90;62.30;;;;;;5002250;28;20069;-69
2023/05/24 03:40:16;;;;;;;4.88;2.92;;;12.80;62.40;;;;;;5021441;28;20022;-69
2023/05/24 03:42:41;;;;;;;6.43;3.38;;;12.80;62.50;;;;;;5015355;28;20034;-69
2023/05/24 03:45:08;;;;;;;5.25;2.60;;;12.70;62.70;;;;;;5019952;28;20049;-68
2023/05/24 03:47:33;;;;;;;6.60;2.72;;;12.70;62.80;;;;;;5008307;28;20018;-68
2023/05/24 03:49:59;;;;;;;8.77;3.10;;;12.60;62.90;;;;;;5006500;28;20191;-69
2023/05/24 03:52:25;;;;;;;7.28;3.20;;;12.60;62.90;;;;;;5021591;28;20125;-68
2023/05/24 03:54:50;;;;;;;7.03;3.20;;;12.60;63.00;;;;;;5021874;28;20273;-69
2023/05/24 03:57:16;;;;;;;6.88;3.10;;;12.60;63.20;;;;;;5021521;28;20042;-69
2023/05/24 03:59:42;;;;;;;7.85;2.90;;;12.50;63.10;;;;;;5019727;28;20022;-69
2023/05/24 04:02:08;;;;;;;6.85;3.08;;;12.50;63.10;;;;;;5021415;28;20029;-68
2023/05/24 04:04:35;;;;;;;5.13;2.60;;;12.50;63.10;;;;;;5021748;28;20034;-69
2023/05/24 04:07:01;;;;;;;4.22;2.45;;;12.50;63.20;;;;;;5022396;28;20501;-68
2023/05/24 04:09:27;;;;;;;5.80;3.05;;;12.50;63.30;;;;;;5002317;28;20025;-68
2023/05/24 04:11:53;;;;;;;11.02;3.70;;;12.40;63.30;;;;;;5024523;28;20026;-68
2023/05/24 04:14:19;;;;;;;9.05;3.35;;;12.40;63.40;;;;;;5024215;28;20041;-68
2023/05/24 04:16:45;;;;;;;8.40;2.90;;;12.40;63.60;;;;;;5026377;28;20030;-69
2023/05/24 04:19:11;;;;;;;9.45;3.33;;;12.40;63.60;;;;;;5019550;28;20021;-67
2023/05/24 04:21:37;;;;;;;7.97;3.35;;;12.40;63.60;;;;;;5003305;28;20026;-67
2023/05/24 04:24:04;;;;;;;5.80;3.20;;;12.40;63.70;;;;;;5019470;28;20050;-67
2023/05/24 04:26:30;;;;;;;6.38;3.40;;;12.40;63.70;;;;;;5012694;28;20029;-66
2023/05/24 04:28:56;;;;;;;5.28;2.65;;;12.40;63.80;;;;;;5020522;28;20025;-67
2023/05/24 04:31:24;;;;;;;7.68;3.35;;;12.40;63.90;;;;;;5015121;28;20034;-68
2023/05/24 04:33:51;;;;;;;7.00;3.20;;;12.40;64.00;;;;;;4942573;28;20032;-68
2023/05/24 04:36:17;;;;;;;7.82;3.40;;;12.40;63.90;;;;;;5020068;28;20160;-67
2023/05/24 04:38:45;;;;;;;9.43;3.15;;;12.40;63.70;;;;;;5021207;28;20086;-68
2023/05/24 04:41:11;;;;;;;5.95;2.75;;;12.50;63.90;;;;;;5001826;28;20026;-67
2023/05/24 04:43:37;;;;;;;8.63;3.90;;;12.50;63.90;;;;;;5017790;28;20489;-69
2023/05/24 04:46:03;;;;;;;7.85;3.08;;;12.50;64.00;;;;;;5018485;28;20053;-69
2023/05/24 04:48:29;;;;;;;12.52;3.95;;;12.50;64.00;;;;;;5019782;28;20128;-69
2023/05/24 04:50:56;;;;;;;7.93;3.25;;;12.50;64.10;;;;;;5018711;28;20030;-69
2023/05/24 04:53:23;;;;;;;6.75;2.88;;;12.50;64.30;;;;;;5018307;28;20083;-68
2023/05/24 04:55:49;;;;;;;5.72;2.85;;;12.60;64.50;;;;;;5019352;28;20101;-70
2023/05/24 04:58:16;;;;;;;5.75;2.80;;;12.60;64.60;;;;;;5002136;28;20052;-68
2023/05/24 05:00:42;;;;;;;7.75;2.80;;;12.70;64.50;;;;;;5019004;28;20052;-67
2023/05/24 05:03:08;;;;;;;9.68;2.85;;;12.70;64.30;;;;;;5022409;28;20028;-67
2023/05/24 05:05:34;;;;;;;12.00;3.38;;;12.80;64.40;;;;;;5016525;28;20033;-69
2023/05/24 05:08:00;;;;;;;6.25;2.90;;;12.80;64.40;;;;;;4995054;28;20036;-68
2023/05/24 05:10:27;;;;;;;6.40;3.03;;;12.90;64.50;;;;;;5019091;28;20060;-68
2023/05/24 05:12:53;;;;;;;7.30;3.20;;;13.00;64.40;;;;;;5017346;28;20040;-68
2023/05/24 05:15:21;;;;;;;6.20;3.35;;;13.00;64.40;;;;;;5017072;28;20030;-68
2023/05/24 05:17:46;;;;;;;9.15;3.42;;;13.10;64.40;;;;;;5016903;28;20033;-69
2023/05/24 05:20:12;;;;;;;8.18;3.55;;;13.20;64.40;;;;;;5017929;28;20026;-68
2023/05/24 05:22:39;;;;;;;9.43;3.50;;;13.20;64.20;;;;;;5010765;28;20049;-69
2023/05/24 05:25:05;;;;;;;8.40;3.17;;;13.30;64.10;;;;;;5020828;28;20073;-68
2023/05/24 05:27:30;;;;;;;9.80;4.10;;;13.40;64.00;;;;;;5019330;28;20030;-69
2023/05/24 05:29:56;;;;;;;9.93;3.17;;;13.40;63.70;;;;;;5013011;28;20041;-69
2023/05/24 05:32:22;;;;;;;9.27;3.60;;;13.40;63.40;;;;;;5014928;28;20049;-68
2023/05/24 05:34:47;;;;;;;8.57;3.55;;;13.50;63.70;;;;;;5018506;28;20033;-68
2023/05/24 05:37:13;;;;;;;13.15;3.60;;;13.50;63.80;;;;;;5017918;28;20393;-69
2023/05/24 05:39:39;;;;;;;9.40;3.42;;;13.60;63.60;;;;;;5018764;28;20366;-68
2023/05/24 05:42:05;;;;;;;6.97;3.35;;;13.60;63.30;;;;;;5011354;28;20022;-68
2023/05/24 05:44:32;;;;;;;8.48;3.50;;;13.70;63.10;;;;;;5017601;28;20057;-69
2023/05/24 05:46:58;;;;;;;13.77;3.67;;;13.80;63.20;;;;;;5020377;28;20022;-68
2023/05/24 05:49:23;;;;;;;7.32;3.47;;;13.90;63.10;;;;;;5024586;28;20041;-68
2023/05/24 05:51:51;;;;;;;10.95;3.83;;;13.90;63.10;;;;;;5023245;28;20038;-69
2023/05/24 05:54:17;;;;;;;10.88;3.40;;;14.00;62.90;;;;;;5000507;28;20037;-68
2023/05/24 05:56:46;;;;;;;9.35;3.50;;;14.10;62.60;;;;;;5020598;28;20021;-67
2023/05/24 05:59:13;;;;;;;10.18;3.67;;;14.10;62.50;;;;;;5019272;28;20113;-68
2023/05/24 06:01:40;;;;;;;10.32;3.60;;;14.20;62.70;;;;;;5014768;28;20037;-69
2023/05/24 06:04:05;;;;;;;13.35;3.58;;;14.30;62.30;;;;;;5016084;28;20085;-68
2023/05/24 06:06:32;;;;;;;6.35;2.88;;;14.40;61.70;;;;;;5003616;28;20061;-68
2023/05/24 06:08:58;;;;;;;14.40;3.58;;;14.40;61.80;;;;;;5019559;28;20022;-68
2023/05/24 06:11:24;;;;;;;8.77;3.10;;;14.50;61.00;;;;;;5016046;28;20032;-69
2023/05/24 06:13:49;;;;;;;8.05;2.90;;;14.60;60.70;;;;;;5019530;28;20449;-69
2023/05/24 06:16:15;;;;;;;10.93;3.30;;;14.60;60.70;;;;;;5001144;28;20132;-68
2023/05/24 06:18:41;;;;;;;12.70;3.38;;;14.80;60.80;;;;;;5005712;28;20052;-69
2023/05/24 06:21:09;;;;;;;8.57;3.38;;;14.90;60.70;;;;;;5014530;28;20040;-69
2023/05/24 06:23:36;;;;;;;8.85;2.85;;;15.00;60.80;;;;;;5019191;28;20064;-68
2023/05/24 06:26:03;;;;;;;11.52;3.53;;;15.20;60.60;;;;;;4997456;28;20042;-68
2023/05/24 06:28:28;;;;;;;11.82;3.58;;;15.30;60.10;;;;;;5015812;28;20030;-69
2023/05/24 06:30:55;;;;;;;8.98;3.00;;;15.50;59.60;;;;;;5014593;28;20154;-69
2023/05/24 06:33:21;;;;;;;10.68;3.30;;;15.60;59.40;;;;;;5017461;28;20089;-68
2023/05/24 06:35:47;;;;;;;13.68;3.17;;;15.80;59.20;;;;;;5019619;28;20121;-70
2023/05/24 06:38:13;;;;;;;10.95;3.40;;;15.90;59.10;;;;;;5001368;28;20105;-69
2023/05/24 06:40:39;;;;;;;11.35;3.80;;;16.00;58.60;;;;;;5020175;28;20132;-69
2023/05/24 06:43:05;;;;;;;10.80;3.45;;;16.10;58.40;;;;;;5003308;28;20060;-68
2023/05/24 06:45:31;;;;;;;11.85;3.40;;;16.20;58.40;;;;;;5002197;28;20143;-69
2023/05/24 06:47:56;;;;;;;10.60;3.22;;;16.30;57.90;;;;;;4997347;28;20041;-69
2023/05/24 06:50:22;;;;;;;8.43;2.97;;;16.40;58.30;;;;;;5023129;28;20072;-69
2023/05/24 06:52:48;;;;;;;10.80;3.85;;;16.50;57.40;;;;;;5024689;28;20033;-70
2023/05/24 06:55:14;;;;;;;16.85;4.25;;;16.50;56.70;;;;;;5020213;28;20022;-68
2023/05/24 06:57:40;;;;;;;10.40;3.67;;;16.50;56.30;;;;;;5015428;28;20152;-69
2023/05/24 07:00:10;;;;;;;12.65;3.60;;;16.50;56.30;;;;;;4996620;28;20030;-68
2023/05/24 07:02:39;;;;;;;14.25;3.53;;;16.50;56.30;;;;;;5014781;28;20467;-70
2023/05/24 07:05:10;;;;;;;16.77;4.10;;;16.50;56.40;;;;;;5020795;28;20034;-69
2023/05/24 07:07:40;;;;;;;9.57;3.45;;;16.50;56.00;;;;;;5019896;28;20105;-69
2023/05/24 07:10:07;;;;;;;9.43;3.55;;;16.50;56.70;;;;;;5017792;28;20030;-69
2023/05/24 07:12:33;;;;;;;12.75;3.47;;;16.40;56.30;;;;;;5020581;28;20097;-69
2023/05/24 07:14:58;;;;;;;12.10;3.42;;;16.50;56.10;;;;;;5002867;28;20029;-70
2023/05/24 07:17:24;;;;;;;18.05;3.30;;;16.40;56.00;;;;;;5015135;28;20065;-69
2023/05/24 07:19:50;;;;;;;8.70;2.95;;;16.40;55.90;;;;;;5020690;28;20083;-69
2023/05/24 07:22:16;;;;;;;13.57;3.70;;;16.40;55.60;;;;;;5017153;28;20038;-68
2023/05/24 07:24:41;;;;;;;13.30;3.47;;;16.40;55.60;;;;;;5003114;28;20069;-70
2023/05/24 07:27:07;;;;;;;11.50;3.50;;;16.40;55.40;;;;;;4999978;28;20076;-69
2023/05/24 07:29:33;;;;;;;11.48;3.35;;;16.40;55.20;;;;;;5017580;28;20103;-68
2023/05/24 07:31:59;;;;;;;9.95;3.22;;;16.40;55.20;;;;;;5016177;28;20022;-69
2023/05/24 07:34:28;;;;;;;12.27;3.50;;;16.40;55.20;;;;;;4996351;28;20025;-69
2023/05/24 07:36:55;;;;;;;11.43;3.33;;;16.30;55.30;;;;;;5012443;28;20026;-69
2023/05/24 07:39:22;;;;;;;10.82;3.55;;;16.30;55.10;;;;;;5020857;28;20022;-69
2023/05/24 07:41:47;;;;;;;11.18;3.60;;;16.30;54.50;;;;;;5019064;28;20026;-69
2023/05/24 07:44:13;;;;;;;17.40;4.00;;;16.20;54.70;;;;;;5017937;28;20032;-69
2023/05/24 07:46:39;;;;;;;12.45;3.17;;;16.10;54.70;;;;;;5021426;28;20049;-69
2023/05/24 07:49:05;;;;;;;7.82;3.25;;;16.10;54.80;;;;;;5019112;28;20030;-68
2023/05/24 07:51:31;;;;;;;10.27;3.58;;;16.10;54.90;;;;;;5006709;28;20095;-68
2023/05/24 07:53:57;;;;;;;7.57;2.83;;;16.10;55.10;;;;;;5010122;28;20102;-69
2023/05/24 07:56:23;;;;;;;10.65;3.22;;;16.10;55.20;;;;;;5022539;28;20025;-69
2023/05/24 07:58:50;;;;;;;11.43;3.72;;;16.10;55.40;;;;;;5021369;28;20029;-69
2023/05/24 08:01:17;;;;;;;7.63;3.55;;;16.20;55.50;;;;;;5002953;28;20033;-70
2023/05/24 08:03:44;;;;;;;14.32;3.70;;;16.20;55.90;;;;;;5022259;28;20036;-70
2023/05/24 08:06:10;;;;;;;19.73;3.97;;;16.30;55.50;;;;;;4999969;28;20049;-69
2023/05/24 08:08:36;;;;;;;9.15;4.47;;;16.40;55.20;;;;;;5021308;28;20022;-69
2023/05/24 08:11:01;;;;;;;11.95;4.15;;;16.40;55.10;;;;;;5019889;28;20172;-69
2023/05/24 08:13:27;;;;;;;16.02;3.72;;;16.50;55.20;;;;;;5001454;28;20030;-69
2023/05/24 08:15:53;;;;;;;15.13;3.40;;;16.50;54.90;;;;;;5014388;28;20018;-69
2023/05/24 08:18:20;;;;;;;13.68;3.42;;;16.50;54.80;;;;;;5015665;28;20026;-69
2023/05/24 08:20:45;;;;;;;15.88;3.63;;;16.60;54.50;;;;;;5011422;28;20030;-69
2023/05/24 08:23:11;;;;;;;18.42;3.58;;;16.60;54.00;;;;;;5017192;28;20034;-69
2023/05/24 08:25:37;;;;;;;14.88;3.90;;;16.60;53.80;;;;;;5026275;28;20069;-70
2023/05/24 08:28:03;;;;;;;14.43;3.78;;;16.60;53.70;;;;;;5019488;28;20068;-70
2023/05/24 08:30:31;;;;;;;15.48;4.05;;;16.50;53.80;;;;;;5019777;28;20026;-69
2023/05/24 08:32:57;;;;;;;10.95;3.42;;;16.50;53.70;;;;;;5019158;28;20032;-68
2023/05/24 08:35:23;;;;;;;15.70;3.97;;;16.50;53.60;;;;;;5015968;28;20081;-68
2023/05/24 08:37:49;;;;;;;17.90;3.50;;;16.50;54.20;;;;;;5017392;28;20042;-69
2023/05/24 08:40:15;;;;;;;12.27;3.58;;;16.50;53.70;;;;;;5019246;28;20076;-69
2023/05/24 08:42:41;;;;;;;11.52;3.53;;;16.50;53.30;;;;;;5018780;28;20022;-70
2023/05/24 08:45:14;;;;;;;9.63;3.55;;;16.40;53.80;;;;;;5021726;28;20073;-68
2023/05/24 08:47:40;;;;;;;14.77;4.38;;;16.40;53.50;;;;;;5006148;28;20025;-69
2023/05/24 08:50:07;;;;;;;11.57;3.90;;;16.40;54.00;;;;;;5017507;28;20129;-70
2023/05/24 08:52:34;;;;;;;13.60;4.18;;;16.40;53.80;;;;;;5017407;28;20045;-70
2023/05/24 08:55:03;;;;;;;14.25;3.88;;;16.40;53.70;;;;;;5015514;28;20053;-70
2023/05/24 08:57:31;;;;;;;7.82;2.95;;;16.40;53.80;;;;;;5011638;28;20076;-69
2023/05/24 08:59:57;;;;;;;16.08;3.42;;;16.40;53.60;;;;;;4994070;28;20018;-69
2023/05/24 09:02:23;;;;;;;15.35;3.45;;;16.40;53.60;;;;;;5018570;28;20030;-68
2023/05/24 09:04:51;;;;;;;9.93;3.80;;;16.40;53.60;;;;;;5017568;28;20046;-70
2023/05/24 09:07:19;;;;;;;11.00;4.13;;;16.40;53.50;;;;;;5016242;28;20140;-70
2023/05/24 09:09:56;;;;;;;10.85;3.45;;;16.50;53.70;;;;;;5017442;28;20022;-70
2023/05/24 09:12:23;;;;;;;10.02;3.22;;;16.50;53.40;;;;;;5011494;28;20044;-70
2023/05/24 09:14:49;;;;;;;14.43;4.40;;;16.50;53.60;;;;;;5018732;28;20033;-70
2023/05/24 09:17:15;;;;;;;8.80;3.30;;;16.50;53.60;;;;;;5016479;28;20034;-69
2023/05/24 09:19:46;;;;;;;17.00;4.10;;;16.50;53.70;;;;;;5016083;28;20078;-70
2023/05/24 09:22:13;;;;;;;12.52;4.15;;;16.60;53.50;;;;;;5017510;28;20073;-69
2023/05/24 09:24:46;;;;;;;16.17;3.25;;;16.70;53.80;;;;;;4996819;28;20065;-70
2023/05/24 09:27:17;;;;;;;11.35;4.03;;;16.80;53.70;;;;;;5015320;28;20480;-70
2023/05/24 09:29:45;;;;;;;8.85;3.40;;;17.00;53.90;;;;;;5015804;28;20037;-70
2023/05/24 09:32:13;;;;;;;18.30;3.72;;;17.10;53.50;;;;;;5017022;28;20021;-70
2023/05/24 09:34:40;;;;;;;20.35;4.18;;;17.20;53.10;;;;;;5017333;28;20036;-69
2023/05/24 09:37:15;;;;;;;19.70;3.67;;;17.30;52.50;;;;;;5017306;28;20037;-70
2023/05/24 09:39:43;;;;;;;10.77;3.17;;;17.40;52.10;;;;;;5018875;28;20022;-71
2023/05/24 09:42:14;;;;;;;10.38;3.17;;;17.50;52.50;;;;;;5000342;28;20068;-70
2023/05/24 09:44:41;;;;;;;16.58;3.08;;;17.60;52.30;;;;;;5005348;28;20046;-70
2023/05/24 09:47:08;;;;;;;9.77;3.33;;;17.80;52.30;;;;;;5021408;28;20086;-69
2023/05/24 09:49:36;;;;;;;14.88;4.00;;;17.80;52.70;;;;;;5013180;28;20089;-69
2023/05/24 09:52:02;;;;;;;12.95;3.40;;;17.90;51.20;;;;;;5019782;28;20045;-70
2023/05/24 09:54:28;;;;;;;13.05;3.83;;;18.00;51.30;;;;;;5023135;28;20026;-70
2023/05/24 09:56:53;;;;;;;17.33;3.90;;;18.10;50.90;;;;;;5018848;28;20030;-69
2023/05/24 09:59:19;;;;;;;10.38;3.72;;;18.10;50.70;;;;;;5020646;28;20020;-70
2023/05/24 10:01:45;;;;;;;11.80;2.95;;;18.10;50.60;;;;;;5022467;28;20021;-70
2023/05/24 10:04:12;;;;;;;13.20;3.35;;;18.10;50.70;;;;;;5021628;28;20113;-71
2023/05/24 10:06:41;;;;;;;9.40;3.42;;;18.20;51.50;;;;;;5021582;28;20030;-70
2023/05/24 10:09:08;;;;;;;18.02;3.65;;;18.20;50.60;;;;;;5016312;28;20031;-70
2023/05/24 10:11:37;;;;;;;7.40;3.05;;;18.20;50.80;;;;;;5019435;28;20396;-71
2023/05/24 10:14:08;;;;;;;8.23;3.22;;;18.30;50.60;;;;;;5020515;28;20026;-70
2023/05/24 10:16:35;;;;;;;8.73;3.08;;;18.40;50.30;;;;;;4999982;28;20111;-69
2023/05/24 10:19:00;;;;;;;12.02;3.55;;;18.40;50.80;;;;;;5020293;28;20086;-69
2023/05/24 10:21:30;;;;;;;9.75;3.40;;;18.40;49.80;;;;;;5021038;28;20045;-70
2023/05/24 10:24:01;;;;;;;9.48;3.17;;;18.40;49.50;;;;;;5001246;28;20036;-71
2023/05/24 10:26:31;;;;;;;12.45;3.20;;;18.30;49.20;;;;;;5029742;28;20037;-70
2023/05/24 10:29:05;;;;;;;14.75;3.20;;;18.30;49.20;;;;;;5024820;28;20116;-69
2023/05/24 10:31:38;;;;;;;13.82;3.58;;;18.20;49.00;;;;;;5020814;28;20034;-70
2023/05/24 10:34:06;;;;;;;12.77;3.20;;;18.10;48.90;;;;;;5004147;28;20033;-70
2023/05/24 10:36:32;;;;;;;14.05;3.40;;;18.10;49.20;;;;;;5002237;28;20044;-70
2023/05/24 10:38:58;;;;;;;11.93;3.53;;;18.00;49.80;;;;;;5021421;28;20021;-70
2023/05/24 10:41:27;;;;;;;8.80;3.28;;;17.90;49.60;;;;;;4999573;28;20033;-69
2023/05/24 10:43:53;;;;;;;13.75;3.60;;;17.90;49.20;;;;;;5019212;28;20021;-70
2023/05/24 10:46:21;;;;;;;12.35;3.08;;;17.90;49.50;;;;;;5002848;28;20140;-69
2023/05/24 10:49:00;;;;;;;11.55;3.65;;;17.80;49.30;;;;;;5022041;28;20018;-70
2023/05/24 10:51:33;;;;;;;9.77;3.13;;;17.80;48.60;;;;;;5018535;28;20030;-70
2023/05/24 10:54:11;;;;;;;13.63;3.05;;;17.80;49.10;;;;;;5017588;28;20037;-69
2023/05/24 10:56:48;;;;;;;14.07;3.30;;;17.80;48.60;;;;;;4999366;28;20021;-71
2023/05/24 10:59:33;;;;;;;9.38;3.70;;;17.80;48.60;;;;;;5017122;28;20384;-70
2023/05/24 11:02:01;;;;;;;12.98;3.85;;;17.80;48.90;;;;;;5019183;28;20050;-71
2023/05/24 11:04:32;;;;;;;11.82;3.25;;;17.80;49.10;;;;;;5020582;28;20034;-70
2023/05/24 11:07:08;;;;;;;8.75;2.95;;;17.80;49.10;;;;;;5018849;28;20018;-71
2023/05/24 11:09:35;;;;;;;16.50;3.13;;;17.70;49.20;;;;;;5000254;28;20048;-69
2023/05/24 11:12:03;;;;;;;10.57;3.15;;;17.70;50.50;;;;;;5017009;28;20453;-71
2023/05/24 11:14:30;;;;;;;9.50;3.15;;;17.80;49.50;;;;;;5019622;28;20033;-70
2023/05/24 11:16:59;;;;;;;10.80;3.72;;;17.80;49.50;;;;;;5012277;28;20061;-70
2023/05/24 11:19:44;;;;;;;14.05;3.65;;;17.80;48.80;;;;;;5018481;28;20028;-71
2023/05/24 11:22:14;;;;;;;12.07;3.85;;;17.80;48.00;;;;;;5016650;28;20041;-71
2023/05/24 11:24:41;;;;;;;13.60;3.40;;;17.80;48.40;;;;;;5017023;28;20034;-71
2023/05/24 11:27:10;;;;;;;14.35;3.60;;;17.70;48.60;;;;;;5020097;28;20130;-70
2023/05/24 11:29:43;;;;;;;16.55;3.47;;;17.60;48.50;;;;;;5005047;28;20507;-71
2023/05/24 11:32:13;;;;;;;15.00;3.85;;;17.60;48.40;;;;;;5019167;28;20025;-71
2023/05/24 11:34:38;;;;;;;10.10;3.42;;;17.60;48.80;;;;;;5015354;28;20034;-71
2023/05/24 11:37:06;;;;;;;12.55;3.85;;;17.50;49.00;;;;;;5018654;28;20424;-71
2023/05/24 11:39:36;;;;;;;10.73;3.75;;;17.50;49.00;;;;;;4961754;28;20083;-70
2023/05/24 11:42:07;;;;;;;15.10;3.72;;;17.50;48.80;;;;;;5017384;28;20057;-71
2023/05/24 11:44:36;;;;;;;13.00;3.38;;;17.40;48.90;;;;;;5012427;28;20098;-71
2023/05/24 11:47:05;;;;;;;11.45;3.17;;;17.40;49.00;;;;;;5012590;28;20030;-72
2023/05/24 11:49:30;;;;;;;12.95;3.45;;;17.30;49.10;;;;;;5017118;28;20041;-71
2023/05/24 11:51:57;;;;;;;9.88;2.90;;;17.40;49.50;;;;;;5020054;28;20022;-71
2023/05/24 11:54:27;;;;;;;11.18;2.97;;;17.30;49.70;;;;;;5021181;28;20022;-70
2023/05/24 11:56:53;;;;;;;15.23;3.50;;;17.40;49.50;;;;;;5022661;28;20026;-69
2023/05/24 11:59:24;;;;;;;11.25;4.03;;;17.40;49.40;;;;;;5020495;28;20111;-70
2023/05/24 12:02:03;;;;;;;12.02;3.75;;;17.40;49.10;;;;;;5018367;28;20022;-70
2023/05/24 12:04:29;;;;;;;10.13;3.35;;;17.30;49.00;;;;;;5001270;28;20034;-72
2023/05/24 12:06:56;;;;;;;12.35;3.53;;;17.30;49.20;;;;;;5020274;28;20025;-71
2023/05/24 12:09:22;;;;;;;12.50;3.72;;;17.20;49.10;;;;;;5021348;28;20026;-69
2023/05/24 12:11:49;;;;;;;12.50;3.90;;;17.10;48.70;;;;;;5022840;28;20033;-70
2023/05/24 12:14:27;;;;;;;11.18;3.30;;;17.00;49.00;;;;;;5016741;28;20090;-72
2023/05/24 12:16:55;;;;;;;9.85;3.40;;;17.00;48.90;;;;;;5019273;28;20030;-72
2023/05/24 12:19:29;;;;;;;13.02;3.22;;;16.90;49.40;;;;;;4985800;28;20040;-70
2023/05/24 12:22:03;;;;;;;15.02;4.10;;;16.90;49.50;;;;;;5017334;28;20503;-70
2023/05/24 12:24:38;;;;;;;12.98;3.42;;;16.90;49.70;;;;;;5109584;27;20452;-71
2023/05/24 12:27:07;;;;;;;12.07;3.45;;;16.80;49.30;;;;;;5087840;28;20020;-70
2023/05/24 12:29:39;;;;;;;15.05;4.28;;;16.80;49.50;;;;;;5091082;28;20046;-71
2023/05/24 12:32:10;;;;;;;12.25;3.38;;;16.80;49.50;;;;;;5088027;28;20032;-70
2023/05/24 12:34:39;;;;;;;12.20;3.95;;;16.70;49.30;;;;;;5090956;28;20040;-70
2023/05/24 12:37:06;;;;;;;10.95;3.28;;;16.70;49.40;;;;;;5091929;28;20048;-69
2023/05/24 12:39:36;;;;;;;11.00;3.53;;;16.60;49.60;;;;;;5090548;28;20025;-71
2023/05/24 12:42:03;;;;;;;10.80;3.75;;;16.60;49.50;;;;;;5089058;28;20020;-69
2023/05/24 12:44:36;;;;;;;10.88;3.33;;;16.60;49.50;;;;;;5087687;28;20052;-70